createdAt,value
2023-03-12T00:01:27.678Z,76.34
2023-03-12T00:03:59.681Z,76.08
2023-03-12T00:06:33.143Z,75.86
2023-03-12T00:09:04.890Z,75.71
2023-03-12T00:11:35.575Z,75.40
2023-03-12T00:14:06.409Z,75.38
2023-03-12T00:16:36.907Z,75.44
2023-03-12T00:19:07.285Z,75.27
2023-03-12T00:21:40.259Z,75.38
2023-03-12T00:24:11.407Z,75.22
2023-03-12T00:26:41.719Z,75.30
2023-03-12T00:29:12.105Z,75.40
2023-03-12T00:31:42.488Z,74.96
2023-03-12T00:34:13.637Z,74.94
2023-03-12T00:36:46.660Z,74.39
2023-03-12T00:39:17.004Z,74.45
2023-03-12T00:41:47.503Z,74.37
2023-03-12T00:44:17.990Z,74.39
2023-03-12T00:46:48.608Z,74.39
2023-03-12T00:49:19.100Z,74.57
2023-03-12T00:51:52.217Z,74.23
2023-03-12T00:54:22.773Z,74.42
2023-03-12T00:56:53.353Z,74.19
2023-03-12T00:59:23.732Z,74.38
2023-03-12T01:01:54.164Z,74.13
2023-03-12T01:04:24.515Z,74.29
2023-03-12T01:06:58.748Z,74.03
2023-03-12T01:09:29.256Z,73.98
2023-03-12T01:12:00.053Z,74.11
2023-03-12T01:14:30.523Z,74.19
2023-03-12T01:17:00.997Z,74.44
2023-03-12T01:19:31.444Z,74.32
2023-03-12T01:22:04.563Z,74.22
2023-03-12T01:24:35.347Z,74.52
2023-03-12T01:27:05.665Z,74.41
2023-03-12T01:29:35.940Z,74.34
2023-03-12T01:32:06.306Z,74.34
2023-03-12T01:34:36.728Z,74.39
2023-03-12T01:37:10.380Z,74.32
2023-03-12T01:39:41.060Z,74.68
2023-03-12T01:42:11.529Z,74.57
2023-03-12T01:44:59.550Z,74.14
2023-03-12T01:47:33.102Z,74.36
2023-03-12T01:50:08.253Z,74.59
2023-03-12T01:52:42.737Z,74.41
2023-03-12T01:55:17.462Z,74.39
2023-03-12T01:57:55.178Z,74.43
2023-03-12T02:00:29.790Z,74.58
2023-03-12T02:03:05.674Z,74.79
2023-03-12T02:05:44.250Z,74.59
2023-03-12T02:08:20.165Z,74.63
2023-03-12T02:10:50.862Z,74.82
2023-03-12T02:13:22.291Z,74.72
2023-03-12T02:15:52.443Z,74.85
2023-03-12T02:18:23.979Z,74.82
2023-03-12T02:21:07.601Z,74.83
2023-03-12T02:23:50.045Z,75.02
2023-03-12T02:26:24.556Z,75.35
2023-03-12T02:28:56.306Z,75.33
2023-03-12T02:31:31.967Z,75.00
2023-03-12T02:34:02.476Z,74.98
2023-03-12T02:36:33.096Z,74.45
2023-03-12T02:39:03.846Z,74.49
2023-03-12T02:41:41.457Z,74.14
2023-03-12T02:44:17.408Z,73.87
2023-03-12T02:46:52.165Z,73.99
2023-03-12T02:49:25.955Z,74.44
2023-03-12T02:51:56.769Z,74.30
2023-03-12T02:54:28.389Z,74.07
2023-03-12T02:57:01.853Z,74.09
2023-03-12T02:59:34.537Z,73.72
2023-03-12T03:02:09.696Z,73.45
2023-03-12T03:04:40.280Z,72.95
2023-03-12T03:07:11.079Z,72.86
2023-03-12T03:09:41.697Z,72.80
2023-03-12T03:12:15.013Z,72.90
2023-03-12T03:14:45.732Z,72.71
2023-03-12T03:17:16.188Z,72.44
2023-03-12T03:19:46.662Z,72.34
2023-03-12T03:22:17.034Z,72.18
2023-03-12T03:24:47.441Z,72.18
2023-03-12T03:27:20.410Z,72.04
2023-03-12T03:29:51.027Z,71.94
2023-03-12T03:32:21.515Z,71.83
2023-03-12T03:34:51.830Z,71.74
2023-03-12T03:37:22.525Z,71.54
2023-03-12T03:39:53.266Z,71.35
2023-03-12T03:42:26.233Z,71.41
2023-03-12T03:44:56.553Z,71.05
2023-03-12T03:47:26.945Z,70.85
2023-03-12T03:49:57.292Z,70.75
2023-03-12T03:52:27.742Z,70.88
2023-03-12T03:54:59.506Z,70.73
2023-03-12T03:57:32.870Z,70.82
2023-03-12T04:00:09.037Z,70.81
2023-03-12T04:02:43.986Z,70.59
2023-03-12T04:05:16.162Z,70.54
2023-03-12T04:07:46.877Z,70.66
2023-03-12T04:10:18.362Z,70.38
2023-03-12T04:12:51.524Z,70.41
2023-03-12T04:15:22.039Z,70.44
2023-03-12T04:17:53.023Z,70.03
2023-03-12T04:20:24.458Z,69.89
2023-03-12T04:22:54.814Z,69.89
2023-03-12T04:25:26.256Z,70.16
2023-03-12T04:27:59.254Z,70.37
2023-03-12T04:30:29.707Z,70.44
2023-03-12T04:33:00.059Z,70.37
2023-03-12T04:35:30.444Z,70.02
2023-03-12T04:38:01.219Z,70.12
2023-03-12T04:40:32.030Z,70.01
2023-03-12T04:43:05.538Z,69.94
2023-03-12T04:45:35.872Z,70.14
2023-03-12T04:48:06.839Z,70.13
2023-03-12T04:50:37.278Z,70.42
2023-03-12T04:53:07.662Z,70.54
2023-03-12T04:55:38.124Z,70.22
2023-03-12T04:58:11.926Z,70.86
2023-03-12T05:00:43.472Z,70.73
2023-03-12T05:03:15.236Z,71.21
2023-03-12T05:05:46.389Z,71.68
2023-03-12T05:08:16.932Z,71.96
2023-03-12T05:10:48.061Z,71.95
2023-03-12T05:13:25.926Z,71.98
2023-03-12T05:15:59.438Z,72.47
2023-03-12T05:18:30.180Z,73.24
2023-03-12T05:21:05.657Z,73.70
2023-03-12T05:23:39.314Z,73.83
2023-03-12T05:26:09.903Z,73.36
2023-03-12T05:28:42.910Z,72.88
2023-03-12T05:31:15.509Z,72.83
2023-03-12T05:33:47.160Z,72.58
2023-03-12T05:36:18.661Z,72.26
2023-03-12T05:38:50.426Z,72.16
2023-03-12T05:41:25.638Z,71.28
2023-03-12T05:44:02.229Z,70.82
2023-03-12T05:46:33.117Z,70.25
2023-03-12T05:49:03.948Z,70.19
2023-03-12T05:51:36.066Z,69.72
2023-03-12T05:54:06.892Z,69.74
2023-03-12T05:56:40.021Z,69.18
2023-03-12T05:59:13.751Z,68.64
2023-03-12T06:01:45.287Z,68.29
2023-03-12T06:04:16.138Z,67.92
2023-03-12T06:06:46.523Z,68.29
2023-03-12T06:09:17.469Z,67.91
2023-03-12T06:11:47.849Z,67.68
2023-03-12T06:14:20.904Z,68.14
2023-03-12T06:16:52.129Z,66.65
2023-03-12T06:19:22.719Z,66.81
2023-03-12T06:21:54.115Z,66.24
2023-03-12T06:24:24.841Z,66.61
2023-03-12T06:27:03.153Z,65.28
2023-03-12T06:29:36.144Z,65.37
2023-03-12T06:32:06.709Z,65.76
2023-03-12T06:34:37.275Z,67.38
2023-03-12T06:37:07.917Z,65.61
2023-03-12T06:39:38.316Z,66.09
2023-03-12T06:42:09.054Z,64.91
2023-03-12T06:44:42.036Z,64.31
2023-03-12T06:47:12.311Z,62.92
2023-03-12T06:49:42.792Z,62.84
2023-03-12T06:52:13.190Z,62.13
2023-03-12T06:54:43.604Z,61.42
2023-03-12T06:57:13.987Z,62.00
2023-03-12T06:59:50.085Z,60.96
2023-03-12T07:02:20.937Z,58.73
2023-03-12T07:04:51.242Z,58.18
2023-03-12T07:07:21.779Z,56.21
2023-03-12T07:09:52.363Z,55.22
2023-03-12T07:12:22.792Z,54.53
2023-03-12T07:14:55.679Z,53.70
2023-03-12T07:17:26.480Z,52.71
2023-03-12T07:19:56.767Z,52.21
2023-03-12T07:22:27.206Z,51.21
2023-03-12T07:24:57.707Z,51.42
2023-03-12T07:27:28.168Z,49.60
2023-03-12T07:30:01.138Z,49.49
2023-03-12T07:32:33.650Z,49.32
2023-03-12T07:35:04.007Z,49.68
2023-03-12T07:37:34.531Z,49.85
2023-03-12T07:40:07.457Z,50.46
2023-03-12T07:42:37.892Z,50.06
2023-03-12T07:45:13.758Z,49.86
2023-03-12T07:47:44.745Z,50.81
2023-03-12T07:50:16.440Z,51.01
2023-03-12T07:52:46.928Z,50.88
2023-03-12T07:55:17.498Z,50.50
2023-03-12T07:57:47.980Z,50.51
2023-03-12T08:00:21.700Z,50.77
2023-03-12T08:02:52.504Z,48.39
2023-03-12T08:05:24.980Z,48.06
2023-03-12T08:07:56.215Z,47.16
2023-03-12T08:10:26.739Z,46.88
2023-03-12T08:12:57.075Z,46.62
2023-03-12T08:15:30.046Z,45.09
2023-03-12T08:18:01.046Z,45.89
2023-03-12T08:20:31.534Z,43.81
2023-03-12T08:23:01.871Z,42.95
2023-03-12T08:25:32.105Z,42.77
2023-03-12T08:28:02.515Z,42.81
2023-03-12T08:30:35.584Z,41.72
2023-03-12T08:33:05.870Z,39.61
2023-03-12T08:35:37.339Z,37.34
2023-03-12T08:38:07.700Z,39.83
2023-03-12T08:40:38.368Z,41.47
2023-03-12T08:43:09.020Z,42.01
2023-03-12T08:45:42.231Z,42.64
2023-03-12T08:48:12.623Z,42.49
2023-03-12T08:50:43.229Z,42.13
2023-03-12T08:53:13.660Z,42.58
2023-03-12T08:55:44.123Z,41.60
2023-03-12T08:58:14.591Z,40.86
2023-03-12T09:00:47.588Z,39.97
2023-03-12T09:03:18.240Z,40.04
2023-03-12T09:05:48.859Z,39.27
2023-03-12T09:08:20.292Z,38.41
2023-03-12T09:10:53.626Z,37.56
2023-03-12T09:13:23.917Z,37.37
2023-03-12T09:16:02.897Z,38.21
2023-03-12T09:18:33.856Z,38.51
2023-03-12T09:21:05.190Z,37.99
2023-03-12T09:23:35.494Z,38.76
2023-03-12T09:26:05.837Z,38.27
2023-03-12T09:28:36.190Z,37.23
2023-03-12T09:31:09.568Z,37.96
2023-03-12T09:33:39.973Z,39.39
2023-03-12T09:36:11.059Z,38.05
2023-03-12T09:38:41.899Z,34.43
2023-03-12T09:41:22.535Z,33.86
2023-03-12T09:43:59.778Z,34.81
2023-03-12T09:46:41.802Z,35.34
2023-03-12T09:49:21.427Z,36.52
2023-03-12T09:51:57.999Z,35.76
2023-03-12T09:54:36.762Z,37.23
2023-03-12T09:57:16.133Z,38.61
2023-03-12T09:59:46.619Z,39.58
2023-03-12T10:02:48.020Z,39.97
2023-03-12T10:05:26.240Z,37.99
2023-03-12T10:08:17.486Z,33.62
2023-03-12T10:10:58.572Z,32.94
2023-03-12T10:13:44.451Z,32.70
2023-03-12T10:16:33.038Z,31.15
2023-03-12T10:19:42.186Z,31.75
2023-03-12T10:22:24.224Z,33.57
2023-03-12T10:25:04.680Z,33.50
2023-03-12T10:27:38.511Z,33.10
2023-03-12T10:30:21.134Z,33.88
2023-03-12T10:32:55.146Z,33.22
2023-03-12T10:35:31.869Z,33.96
2023-03-12T10:38:04.808Z,33.35
2023-03-12T10:40:39.144Z,34.97
2023-03-12T10:43:10.177Z,35.15
2023-03-12T10:45:46.997Z,33.79
2023-03-12T10:48:24.893Z,33.93
2023-03-12T10:51:09.924Z,35.58
2023-03-12T10:53:45.023Z,35.75
2023-03-12T10:56:17.991Z,36.09
2023-03-12T10:58:51.114Z,36.84
2023-03-12T11:01:25.975Z,37.08
2023-03-12T11:04:12.001Z,36.47
2023-03-12T11:06:45.166Z,35.32
2023-03-12T11:09:22.020Z,35.00
2023-03-12T11:11:53.804Z,35.41
2023-03-12T11:14:26.539Z,35.55
2023-03-12T11:16:59.499Z,36.43
2023-03-12T11:19:32.790Z,36.80
2023-03-12T11:22:11.656Z,37.60
2023-03-12T11:25:00.019Z,37.49
2023-03-12T11:27:41.309Z,37.48
2023-03-12T11:30:18.029Z,38.39
2023-03-12T11:32:51.332Z,37.97
2023-03-12T11:35:33.258Z,38.16
2023-03-12T11:38:15.551Z,36.64
2023-03-12T11:41:05.111Z,36.46
2023-03-12T11:43:57.829Z,35.85
2023-03-12T11:46:45.127Z,35.70
2023-03-12T11:49:31.572Z,35.44
2023-03-12T11:52:09.448Z,35.49
2023-03-12T11:55:17.040Z,34.16
2023-03-12T11:58:10.198Z,34.58
2023-03-12T12:00:53.229Z,35.46
2023-03-12T12:03:42.318Z,35.60
2023-03-12T12:06:21.221Z,35.70
2023-03-12T12:09:14.317Z,35.83
2023-03-12T12:12:05.755Z,36.72
2023-03-12T12:14:58.938Z,36.35
2023-03-12T12:17:49.097Z,36.98
2023-03-12T12:20:27.698Z,36.57
2023-03-12T12:23:13.414Z,36.71
2023-03-12T12:26:09.097Z,37.19
2023-03-12T12:29:00.125Z,36.61
2023-03-12T12:31:37.111Z,37.83
2023-03-12T12:34:35.024Z,37.75
2023-03-12T12:37:33.634Z,38.09
2023-03-12T12:40:18.816Z,39.39
2023-03-12T12:43:00.343Z,39.96
2023-03-12T12:45:33.331Z,41.02
2023-03-12T12:48:09.318Z,41.11
2023-03-12T12:50:42.796Z,41.52
2023-03-12T12:53:24.514Z,42.36
2023-03-12T12:56:06.241Z,42.91
2023-03-12T12:59:08.689Z,43.50
2023-03-12T13:01:42.161Z,44.07
2023-03-12T13:04:26.606Z,44.49
2023-03-12T13:07:01.062Z,45.22
2023-03-12T13:09:44.218Z,45.80
2023-03-12T13:12:24.188Z,46.97
2023-03-12T13:14:56.547Z,47.89
2023-03-12T13:17:33.167Z,48.71
2023-03-12T13:20:16.862Z,50.04
2023-03-12T13:23:23.315Z,50.61
2023-03-12T13:26:04.470Z,50.72
2023-03-12T13:28:44.476Z,51.00
2023-03-12T13:31:40.556Z,52.86
2023-03-12T13:34:58.448Z,55.12
2023-03-12T13:37:59.960Z,56.54
2023-03-12T13:40:56.764Z,58.41
2023-03-12T13:43:52.627Z,59.25
2023-03-12T13:46:45.164Z,59.42
2023-03-12T13:49:19.757Z,59.60
2023-03-12T13:52:18.609Z,59.92
2023-03-12T13:54:52.528Z,60.43
2023-03-12T13:57:41.348Z,60.79
2023-03-12T14:00:21.619Z,61.17
2023-03-12T14:02:56.699Z,61.17
2023-03-12T14:05:27.388Z,61.64
2023-03-12T14:08:33.798Z,62.14
2023-03-12T14:11:26.428Z,62.40
2023-03-12T14:14:42.378Z,63.77
2023-03-12T14:17:20.518Z,64.86
2023-03-12T14:19:55.731Z,65.81
2023-03-12T14:22:27.239Z,66.39
2023-03-12T14:25:04.265Z,67.27
2023-03-12T14:27:37.130Z,67.46
2023-03-12T14:30:16.581Z,67.38
2023-03-12T14:32:49.277Z,67.65
2023-03-12T14:35:25.988Z,68.45
2023-03-12T14:38:03.718Z,68.66
2023-03-12T14:40:44.433Z,68.05
2023-03-12T14:43:28.265Z,68.41
2023-03-12T14:46:00.149Z,68.80
2023-03-12T14:48:34.443Z,69.33
2023-03-12T14:51:09.901Z,70.60
2023-03-12T14:53:41.964Z,71.69
2023-03-12T14:56:19.656Z,72.48
2023-03-12T14:58:52.768Z,73.07
2023-03-12T15:01:27.262Z,72.91
2023-03-12T15:04:02.035Z,73.39
2023-03-12T15:06:35.042Z,73.92
2023-03-12T15:09:09.677Z,74.69
2023-03-12T15:11:42.929Z,74.71
2023-03-12T15:14:18.128Z,75.21
2023-03-12T15:16:48.906Z,75.66
2023-03-12T15:19:25.199Z,76.35
2023-03-12T15:21:55.791Z,77.07
2023-03-12T15:24:26.764Z,77.68
2023-03-12T15:26:59.875Z,77.82
2023-03-12T15:29:32.150Z,78.12
2023-03-12T15:32:03.882Z,78.86
2023-03-12T15:34:37.104Z,78.98
2023-03-12T15:37:29.721Z,78.97
2023-03-12T15:40:07.398Z,79.04
2023-03-12T15:42:46.676Z,79.30
2023-03-12T15:45:23.679Z,79.42
2023-03-12T15:47:57.094Z,79.55
2023-03-12T15:50:34.508Z,79.81
2023-03-12T15:53:07.758Z,80.37
2023-03-12T15:55:39.574Z,80.84
2023-03-12T15:58:32.067Z,81.27
2023-03-12T16:01:16.764Z,82.08
2023-03-12T16:03:48.645Z,84.35
2023-03-12T16:06:23.383Z,86.79
2023-03-12T16:08:56.911Z,88.33
2023-03-12T16:11:30.834Z,88.94
2023-03-12T16:14:12.184Z,89.31
2023-03-12T16:16:42.811Z,88.86
2023-03-12T16:19:17.904Z,89.10
2023-03-12T16:21:48.674Z,89.45
2023-03-12T16:24:19.717Z,90.17
2023-03-12T16:26:54.093Z,90.22
2023-03-12T16:29:34.293Z,90.33
2023-03-12T16:32:05.743Z,90.73
2023-03-12T16:34:36.207Z,91.41
2023-03-12T16:37:06.830Z,92.71
2023-03-12T16:39:37.226Z,93.43
2023-03-12T16:42:17.277Z,94.84
2023-03-12T16:44:50.793Z,97.25
2023-03-12T16:47:21.094Z,98.57
2023-03-12T16:49:51.424Z,99.89
2023-03-12T16:52:24.457Z,100.00
2023-03-12T16:54:55.308Z,100.00
2023-03-12T16:57:30.769Z,100.00
2023-03-12T17:00:07.877Z,100.00
2023-03-12T17:02:39.265Z,100.00
2023-03-12T17:05:10.570Z,99.90
2023-03-12T17:07:40.848Z,99.73
2023-03-12T17:10:14.864Z,99.79
2023-03-12T17:12:48.209Z,99.16
2023-03-12T17:15:25.944Z,99.21
2023-03-12T17:17:59.463Z,99.41
2023-03-12T17:20:29.797Z,99.43
2023-03-12T17:23:00.182Z,99.26
2023-03-12T17:25:34.511Z,99.35
2023-03-12T17:28:05.184Z,99.32
2023-03-12T17:30:39.288Z,98.86
2023-03-12T17:33:13.891Z,99.46
2023-03-12T17:35:45.462Z,99.59
2023-03-12T17:38:16.482Z,100.00
2023-03-12T17:40:48.052Z,100.00
2023-03-12T17:43:18.429Z,100.00
2023-03-12T17:45:51.462Z,100.00
2023-03-12T17:48:23.424Z,100.00
2023-03-12T17:50:53.848Z,100.00
2023-03-12T17:53:24.225Z,100.00
2023-03-12T17:55:54.606Z,100.00
2023-03-12T17:58:25.113Z,100.00
2023-03-12T18:00:58.356Z,100.00
2023-03-12T18:03:28.735Z,100.00
2023-03-12T18:05:59.994Z,100.00
2023-03-12T18:08:30.028Z,100.00
2023-03-12T18:11:01.791Z,100.00
2023-03-12T18:13:32.313Z,100.00
2023-03-12T18:16:05.433Z,100.00
2023-03-12T18:18:35.956Z,100.00
2023-03-12T18:21:06.878Z,100.00
2023-03-12T18:23:37.361Z,100.00
2023-03-12T18:26:08.626Z,100.00
2023-03-12T18:28:39.071Z,100.00
2023-03-12T18:31:12.181Z,100.00
2023-03-12T18:33:42.779Z,100.00
2023-03-12T18:36:13.469Z,100.00
2023-03-12T18:38:43.926Z,100.00
2023-03-12T18:41:16.723Z,100.00
2023-03-12T18:43:47.138Z,100.00
2023-03-12T18:46:23.142Z,100.00
2023-03-12T18:48:54.000Z,100.00
2023-03-12T18:51:25.059Z,100.00
2023-03-12T18:53:55.437Z,100.00
2023-03-12T18:56:25.923Z,100.00
2023-03-12T18:58:56.259Z,100.00
2023-03-12T19:01:29.181Z,100.00
2023-03-12T19:03:59.594Z,100.00
2023-03-12T19:06:40.801Z,100.00
2023-03-12T19:09:14.670Z,100.00
2023-03-12T19:11:45.186Z,100.00
2023-03-12T19:14:15.619Z,100.00
2023-03-12T19:16:48.524Z,100.00
2023-03-12T19:19:18.850Z,100.00
2023-03-12T19:21:49.201Z,100.00
2023-03-12T19:24:19.513Z,100.00
2023-03-12T19:26:49.922Z,100.00
2023-03-12T19:29:20.677Z,100.00
2023-03-12T19:31:53.700Z,100.00
2023-03-12T19:34:24.845Z,100.00
2023-03-12T19:36:55.637Z,100.00
2023-03-12T19:39:26.119Z,100.00
2023-03-12T19:41:59.344Z,100.00
2023-03-12T19:44:29.712Z,100.00
2023-03-12T19:47:05.520Z,100.00
2023-03-12T19:49:36.037Z,100.00
2023-03-12T19:52:07.140Z,100.00
2023-03-12T19:54:37.365Z,100.00
2023-03-12T19:57:07.842Z,100.00
2023-03-12T19:59:38.382Z,100.00
2023-03-12T20:02:14.985Z,100.00
2023-03-12T20:04:45.364Z,100.00
2023-03-12T20:07:17.472Z,100.00
2023-03-12T20:09:47.777Z,100.00
2023-03-12T20:12:18.113Z,100.00
2023-03-12T20:14:48.590Z,100.00
2023-03-12T20:17:22.867Z,100.00
2023-03-12T20:19:53.310Z,100.00
2023-03-12T20:22:28.176Z,100.00
2023-03-12T20:24:58.658Z,100.00
2023-03-12T20:27:29.412Z,100.00
2023-03-12T20:30:00.064Z,100.00
2023-03-12T20:32:33.124Z,100.00
2023-03-12T20:35:03.669Z,100.00
2023-03-12T20:37:34.130Z,100.00
2023-03-12T20:40:05.380Z,100.00
2023-03-12T20:42:36.241Z,100.00
2023-03-12T20:45:07.329Z,100.00
2023-03-12T20:47:40.620Z,100.00
2023-03-12T20:50:13.283Z,100.00
2023-03-12T20:52:43.634Z,100.00
2023-03-12T20:55:14.150Z,100.00
2023-03-12T20:57:44.565Z,100.00
2023-03-12T21:00:16.247Z,100.00
2023-03-12T21:02:49.253Z,100.00
2023-03-12T21:05:19.997Z,100.00
2023-03-12T21:07:50.618Z,100.00
2023-03-12T21:10:21.390Z,100.00
2023-03-12T21:12:51.829Z,100.00
2023-03-12T21:15:22.567Z,100.00
2023-03-12T21:17:55.554Z,100.00
2023-03-12T21:20:26.039Z,100.00
2023-03-12T21:22:56.474Z,100.00
2023-03-12T21:25:27.216Z,100.00
2023-03-12T21:27:58.451Z,100.00
2023-03-12T21:30:28.873Z,100.00
2023-03-12T21:33:02.286Z,100.00
2023-03-12T21:35:32.902Z,100.00
2023-03-12T21:38:03.407Z,100.00
2023-03-12T21:40:33.799Z,100.00
2023-03-12T21:43:04.154Z,100.00
2023-03-12T21:45:34.756Z,100.00
2023-03-12T21:48:08.799Z,100.00
2023-03-12T21:50:39.213Z,100.00
2023-03-12T21:53:21.417Z,100.00
2023-03-12T21:55:58.912Z,100.00
2023-03-12T21:58:30.396Z,100.00
2023-03-12T22:01:09.421Z,100.00
2023-03-12T22:03:44.734Z,100.00
2023-03-12T22:06:16.213Z,100.00
2023-03-12T22:08:48.200Z,100.00
2023-03-12T22:11:19.063Z,100.00
2023-03-12T22:13:49.460Z,100.00
2023-03-12T22:16:19.834Z,100.00
2023-03-12T22:18:55.859Z,100.00
2023-03-12T22:21:27.077Z,100.00
2023-03-12T22:23:58.174Z,100.00
2023-03-12T22:26:29.033Z,100.00
2023-03-12T22:29:01.322Z,100.00
2023-03-12T22:31:33.488Z,100.00
2023-03-12T22:34:06.509Z,100.00
2023-03-12T22:36:36.906Z,100.00
2023-03-12T22:39:07.301Z,100.00
2023-03-12T22:41:37.864Z,100.00
2023-03-12T22:44:10.565Z,100.00
2023-03-12T22:46:41.149Z,100.00
2023-03-12T22:49:14.253Z,100.00
2023-03-12T22:51:44.817Z,100.00
2023-03-12T22:54:16.349Z,100.00
2023-03-12T22:56:48.187Z,100.00
2023-03-12T22:59:18.825Z,100.00
2023-03-12T23:01:49.697Z,100.00
2023-03-12T23:04:22.920Z,100.00
2023-03-12T23:06:59.065Z,100.00
2023-03-12T23:09:37.754Z,100.00
2023-03-12T23:12:08.651Z,100.00
2023-03-12T23:14:39.187Z,100.00
2023-03-12T23:17:11.284Z,100.00
2023-03-12T23:19:45.030Z,100.00
2023-03-12T23:22:15.343Z,100.00
2023-03-12T23:24:48.443Z,100.00
2023-03-12T23:27:19.277Z,100.00
2023-03-12T23:29:49.734Z,100.00
2023-03-12T23:32:20.210Z,100.00
2023-03-12T23:34:53.841Z,100.00
2023-03-12T23:37:24.503Z,100.00
2023-03-12T23:39:55.309Z,100.00
2023-03-12T23:42:26.074Z,100.00
2023-03-12T23:44:56.529Z,100.00
2023-03-12T23:47:29.674Z,100.00
2023-03-12T23:50:02.594Z,100.00
2023-03-12T23:52:33.114Z,99.46
2023-03-12T23:55:03.685Z,99.34
2023-03-12T23:57:35.084Z,98.75
